createdAt,value
2019-05-17T00:01:07.463Z,6.37
2019-05-17T00:03:47.894Z,6.36
2019-05-17T00:06:19.071Z,6.34
2019-05-17T00:08:56.521Z,6.33
2019-05-17T00:11:30.085Z,6.31
2019-05-17T00:14:00.547Z,6.28
2019-05-17T00:16:37.343Z,6.26
2019-05-17T00:19:09.072Z,6.24
2019-05-17T00:21:39.520Z,6.22
2019-05-17T00:24:19.090Z,6.21
2019-05-17T00:27:00.848Z,6.21
2019-05-17T00:29:32.559Z,6.21
2019-05-17T00:32:06.449Z,6.20
2019-05-17T00:34:37.727Z,6.15
2019-05-17T00:37:17.376Z,6.11
2019-05-17T00:39:48.651Z,6.11
2019-05-17T00:42:19.125Z,6.12
2019-05-17T00:44:50.126Z,6.12
2019-05-17T00:47:21.047Z,6.15
2019-05-17T00:50:07.323Z,6.17
2019-05-17T00:52:37.381Z,6.17
2019-05-17T00:55:10.861Z,6.17
2019-05-17T00:57:41.311Z,6.18
2019-05-17T01:00:11.806Z,6.16
2019-05-17T01:02:42.578Z,6.17
2019-05-17T01:05:13.001Z,6.15
2019-05-17T01:07:43.462Z,6.15
2019-05-17T01:10:13.943Z,6.16
2019-05-17T01:12:44.429Z,6.17
2019-05-17T01:15:22.756Z,6.21
2019-05-17T01:17:53.208Z,6.21
2019-05-17T01:20:23.822Z,6.22
2019-05-17T01:22:56.695Z,6.22
2019-05-17T01:25:27.262Z,6.22
2019-05-17T01:27:58.015Z,6.21
2019-05-17T01:30:41.942Z,6.22
2019-05-17T01:33:12.401Z,6.23
2019-05-17T01:35:46.495Z,6.24
2019-05-17T01:38:17.725Z,6.23
2019-05-17T01:40:48.275Z,6.24
2019-05-17T01:43:24.455Z,6.25
2019-05-17T01:45:57.272Z,6.27
2019-05-17T01:48:27.228Z,6.29
2019-05-17T01:50:57.708Z,6.29
2019-05-17T01:53:28.162Z,6.29
2019-05-17T01:55:58.559Z,6.29
2019-05-17T01:58:42.073Z,6.31
2019-05-17T02:01:12.635Z,6.32
2019-05-17T02:03:43.149Z,6.32
2019-05-17T02:06:16.550Z,6.32
2019-05-17T02:08:47.637Z,6.32
2019-05-17T02:11:38.789Z,6.32
2019-05-17T02:14:09.635Z,6.34
2019-05-17T02:16:40.098Z,6.35
2019-05-17T02:19:10.714Z,6.34
2019-05-17T02:21:41.136Z,6.35
2019-05-17T02:24:11.556Z,6.35
2019-05-17T02:26:46.432Z,6.36
2019-05-17T02:29:17.249Z,6.37
2019-05-17T02:31:47.682Z,6.38
2019-05-17T02:34:18.066Z,6.39
2019-05-17T02:36:48.514Z,6.40
2019-05-17T02:39:24.973Z,6.40
2019-05-17T02:41:55.597Z,6.40
2019-05-17T02:44:26.004Z,6.41
2019-05-17T02:46:56.461Z,6.42
2019-05-17T02:49:27.109Z,6.45
2019-05-17T02:51:57.538Z,6.44
2019-05-17T02:54:28.008Z,6.50
2019-05-17T02:56:58.445Z,6.50
2019-05-17T02:59:28.888Z,6.51
2019-05-17T03:01:59.307Z,6.52
2019-05-17T03:04:32.520Z,6.51
2019-05-17T03:07:03.946Z,6.50
2019-05-17T03:09:34.606Z,6.50
2019-05-17T03:12:05.050Z,6.50
2019-05-17T03:14:35.427Z,6.51
2019-05-17T03:17:05.907Z,6.50
2019-05-17T03:19:36.315Z,6.52
2019-05-17T03:22:13.139Z,6.52
2019-05-17T03:24:43.990Z,6.52
2019-05-17T03:27:23.291Z,6.52
2019-05-17T03:29:54.033Z,6.52
2019-05-17T03:32:26.541Z,6.54
2019-05-17T03:35:06.057Z,6.56
2019-05-17T03:37:37.482Z,6.55
2019-05-17T03:40:21.659Z,6.56
2019-05-17T03:42:36.853Z,6.58
2019-05-17T03:45:07.364Z,6.59
2019-05-17T03:47:37.757Z,6.60
2019-05-17T03:50:13.778Z,6.60
2019-05-17T03:52:46.270Z,6.61
2019-05-17T03:55:17.632Z,6.60
2019-05-17T03:57:48.173Z,6.60
2019-05-17T04:00:22.970Z,6.61
2019-05-17T04:02:53.920Z,6.62
2019-05-17T04:05:24.761Z,6.63
2019-05-17T04:07:55.184Z,6.64
2019-05-17T04:10:25.827Z,6.64
2019-05-17T04:12:56.766Z,6.66
2019-05-17T04:15:27.944Z,6.68
2019-05-17T04:17:59.697Z,6.69
2019-05-17T04:20:32.890Z,6.70
2019-05-17T04:23:03.859Z,6.70
2019-05-17T04:25:38.255Z,6.70
2019-05-17T04:28:06.543Z,6.72
2019-05-17T04:31:02.822Z,6.75
2019-05-17T04:33:34.238Z,6.78
2019-05-17T04:36:04.733Z,6.80
2019-05-17T04:38:35.125Z,6.83
2019-05-17T04:41:05.590Z,6.84
2019-05-17T04:43:36.357Z,6.90
2019-05-17T04:46:06.802Z,6.92
2019-05-17T04:48:37.186Z,6.98
2019-05-17T04:51:07.905Z,7.01
2019-05-17T04:53:38.299Z,7.06
2019-05-17T04:56:22.700Z,7.10
2019-05-17T04:58:54.376Z,7.16
2019-05-17T05:01:25.003Z,7.21
2019-05-17T05:03:55.538Z,7.24
2019-05-17T05:06:27.369Z,7.27
2019-05-17T05:08:57.869Z,7.28
2019-05-17T05:11:50.415Z,7.30
2019-05-17T05:14:08.272Z,7.33
2019-05-17T05:16:38.740Z,7.35
2019-05-17T05:19:09.219Z,7.38
2019-05-17T05:21:42.450Z,7.40
2019-05-17T05:24:13.271Z,7.44
2019-05-17T05:26:43.867Z,7.49
2019-05-17T05:29:14.346Z,7.53
2019-05-17T05:31:44.797Z,7.57
2019-05-17T05:34:15.227Z,7.63
2019-05-17T05:36:45.696Z,7.68
2019-05-17T05:39:16.879Z,7.79
2019-05-17T05:41:47.333Z,7.86
2019-05-17T05:44:17.878Z,7.95
2019-05-17T05:46:48.330Z,8.03
2019-05-17T05:49:21.320Z,8.12
2019-05-17T05:51:55.148Z,8.19
2019-05-17T05:54:25.608Z,8.27
2019-05-17T05:56:56.296Z,8.32
2019-05-17T05:59:27.251Z,8.42
2019-05-17T06:01:58.104Z,8.46
2019-05-17T06:04:29.081Z,8.50
2019-05-17T06:07:04.515Z,8.51
2019-05-17T06:09:34.977Z,8.53
2019-05-17T06:12:05.753Z,8.51
2019-05-17T06:14:36.645Z,8.56
2019-05-17T06:17:08.190Z,8.63
2019-05-17T06:19:38.959Z,8.69
2019-05-17T06:22:09.994Z,8.75
2019-05-17T06:24:42.482Z,8.83
2019-05-17T06:27:13.044Z,8.96
2019-05-17T06:29:43.749Z,9.05
2019-05-17T06:32:14.532Z,9.14
2019-05-17T06:34:44.986Z,9.21
2019-05-17T06:37:16.708Z,9.29
2019-05-17T06:39:47.359Z,9.43
2019-05-17T06:42:18.130Z,9.55
2019-05-17T06:44:52.342Z,9.67
2019-05-17T06:47:27.028Z,9.89
2019-05-17T06:49:57.435Z,10.04
2019-05-17T06:52:27.856Z,10.18
2019-05-17T06:54:58.532Z,10.26
2019-05-17T06:57:32.555Z,10.34
2019-05-17T07:00:06.430Z,10.52
2019-05-17T07:02:36.257Z,10.54
2019-05-17T07:05:10.127Z,10.55
2019-05-17T07:07:43.197Z,10.48
2019-05-17T07:10:13.941Z,10.43
2019-05-17T07:12:55.199Z,10.44
2019-05-17T07:15:20.993Z,10.35
2019-05-17T07:17:56.746Z,10.43
2019-05-17T07:20:27.223Z,10.47
2019-05-17T07:23:00.376Z,10.64
2019-05-17T07:25:30.459Z,10.86
2019-05-17T07:28:02.106Z,11.03
2019-05-17T07:30:54.288Z,11.23
2019-05-17T07:33:30.350Z,11.42
2019-05-17T07:36:03.096Z,11.57
2019-05-17T07:38:33.523Z,11.66
2019-05-17T07:41:03.948Z,11.60
2019-05-17T07:43:35.478Z,11.45
2019-05-17T07:46:09.476Z,11.29
2019-05-17T07:48:40.501Z,11.19
2019-05-17T07:51:14.877Z,11.10
2019-05-17T07:53:45.555Z,11.11
2019-05-17T07:56:20.471Z,11.07
2019-05-17T07:58:51.096Z,11.00
2019-05-17T08:01:21.595Z,10.89
2019-05-17T08:03:52.145Z,10.79
2019-05-17T08:06:23.098Z,10.71
2019-05-17T08:09:01.156Z,10.68
2019-05-17T08:11:33.573Z,10.64
2019-05-17T08:14:04.354Z,10.56
2019-05-17T08:16:39.459Z,10.51
2019-05-17T08:19:10.070Z,10.61
2019-05-17T08:21:41.622Z,10.68
2019-05-17T08:24:12.025Z,10.73
2019-05-17T08:26:42.776Z,10.80
2019-05-17T08:29:13.163Z,10.83
2019-05-17T08:31:43.595Z,10.82
2019-05-17T08:34:17.243Z,10.81
2019-05-17T08:36:49.890Z,10.72
2019-05-17T08:39:21.967Z,10.66
2019-05-17T08:41:52.689Z,10.71
2019-05-17T08:44:23.110Z,10.75
2019-05-17T08:46:59.390Z,10.82
2019-05-17T08:49:31.135Z,10.91
2019-05-17T08:52:04.751Z,10.95
2019-05-17T08:54:42.665Z,11.12
2019-05-17T08:57:13.620Z,11.29
2019-05-17T08:59:44.274Z,11.33
2019-05-17T09:02:14.771Z,11.34
2019-05-17T09:04:46.284Z,11.49
2019-05-17T09:07:26.783Z,11.63
2019-05-17T09:09:57.236Z,11.78
2019-05-17T09:12:30.038Z,12.03
2019-05-17T09:15:00.739Z,12.23
2019-05-17T09:17:33.400Z,12.72
2019-05-17T09:20:04.177Z,12.91
2019-05-17T09:23:00.084Z,12.82
2019-05-17T09:25:55.512Z,12.91
2019-05-17T09:28:31.830Z,12.97
2019-05-17T09:31:02.762Z,12.93
2019-05-17T09:34:14.836Z,13.00
2019-05-17T09:36:50.049Z,13.01
2019-05-17T09:39:23.608Z,12.89
2019-05-17T09:41:54.298Z,12.80
2019-05-17T09:44:24.810Z,12.72
2019-05-17T09:47:05.849Z,12.69
2019-05-17T09:49:36.473Z,12.63
2019-05-17T09:52:09.464Z,12.68
2019-05-17T09:54:45.414Z,12.70
2019-05-17T09:57:14.945Z,12.66
2019-05-17T09:59:45.352Z,12.74
2019-05-17T10:02:20.914Z,12.87
2019-05-17T10:04:59.789Z,13.03
2019-05-17T10:07:30.546Z,13.11
2019-05-17T10:10:16.042Z,13.27
2019-05-17T10:12:51.270Z,13.34
2019-05-17T10:15:40.904Z,13.43
2019-05-17T10:18:11.369Z,13.41
2019-05-17T10:20:42.055Z,13.48
2019-05-17T10:23:12.505Z,13.54
2019-05-17T10:25:43.037Z,13.50
2019-05-17T10:28:29.721Z,13.51
2019-05-17T10:31:02.281Z,13.37
2019-05-17T10:33:32.804Z,13.31
2019-05-17T10:36:03.181Z,13.25
2019-05-17T10:38:33.797Z,13.19
2019-05-17T10:41:07.298Z,13.17
2019-05-17T10:43:45.310Z,13.08
2019-05-17T10:46:17.182Z,13.57
2019-05-17T10:48:50.174Z,13.98
2019-05-17T10:51:21.179Z,13.99
2019-05-17T10:53:51.662Z,14.03
2019-05-17T10:56:25.305Z,14.03
2019-05-17T10:59:05.516Z,14.05
2019-05-17T11:01:36.300Z,14.21
2019-05-17T11:04:07.099Z,14.22
2019-05-17T11:06:40.713Z,14.15
2019-05-17T11:09:20.209Z,14.08
2019-05-17T11:11:52.480Z,13.92
2019-05-17T11:14:23.157Z,13.87
2019-05-17T11:16:57.080Z,13.89
2019-05-17T11:19:29.043Z,13.89
2019-05-17T11:21:59.947Z,13.91
2019-05-17T11:24:31.572Z,14.07
2019-05-17T11:27:15.934Z,14.45
2019-05-17T11:29:52.458Z,14.74
2019-05-17T11:32:27.450Z,14.94
2019-05-17T11:35:26.620Z,15.10
2019-05-17T11:37:58.656Z,15.37
2019-05-17T11:40:43.638Z,15.54
2019-05-17T11:43:28.322Z,15.48
2019-05-17T11:45:57.674Z,15.47
2019-05-17T11:48:28.344Z,15.42
2019-05-17T11:51:00.829Z,15.56
2019-05-17T11:53:41.174Z,15.71
2019-05-17T11:56:11.773Z,15.75
2019-05-17T11:58:42.246Z,15.61
2019-05-17T12:01:14.636Z,15.58
2019-05-17T12:03:45.086Z,15.62
2019-05-17T12:06:15.838Z,15.53
2019-05-17T12:08:51.338Z,15.52
2019-05-17T12:11:21.768Z,15.50
2019-05-17T12:13:55.772Z,15.54
2019-05-17T12:16:31.910Z,15.52
2019-05-17T12:19:02.338Z,15.71
2019-05-17T12:21:37.205Z,15.71
2019-05-17T12:24:09.221Z,15.68
2019-05-17T12:26:55.807Z,15.57
2019-05-17T12:29:26.246Z,15.63
2019-05-17T12:32:06.554Z,15.75
2019-05-17T12:34:39.584Z,15.78
2019-05-17T12:37:12.975Z,15.80
2019-05-17T12:39:44.995Z,15.87
2019-05-17T12:42:15.466Z,15.85
2019-05-17T12:44:52.104Z,15.88
2019-05-17T12:47:22.662Z,15.74
2019-05-17T12:49:57.499Z,15.85
2019-05-17T12:52:27.920Z,15.83
2019-05-17T12:54:58.421Z,15.96
2019-05-17T12:57:28.810Z,16.11
2019-05-17T13:00:02.519Z,15.99
2019-05-17T13:02:42.205Z,16.10
2019-05-17T13:05:13.237Z,16.30
2019-05-17T13:07:43.900Z,16.39
2019-05-17T13:10:14.372Z,16.53
2019-05-17T13:12:46.233Z,16.61
2019-05-17T13:15:18.586Z,16.69
2019-05-17T13:18:00.088Z,16.80
2019-05-17T13:20:32.270Z,17.10
2019-05-17T13:23:04.138Z,17.31
2019-05-17T13:25:41.803Z,17.14
2019-05-17T13:28:12.554Z,16.96
2019-05-17T13:30:45.726Z,16.92
2019-05-17T13:33:18.361Z,17.05
2019-05-17T13:35:49.109Z,17.44
2019-05-17T13:38:21.080Z,17.52
2019-05-17T13:40:52.117Z,17.50
2019-05-17T13:43:22.961Z,17.73
2019-05-17T13:45:53.537Z,17.69
2019-05-17T13:48:27.102Z,17.80
2019-05-17T13:50:59.102Z,18.30
2019-05-17T13:53:29.640Z,18.57
2019-05-17T13:56:00.123Z,18.41
2019-05-17T13:58:30.844Z,18.66
2019-05-17T14:01:04.030Z,18.72
2019-05-17T14:03:34.522Z,18.68
2019-05-17T14:06:09.243Z,19.07
2019-05-17T14:08:43.111Z,19.36
2019-05-17T14:11:28.347Z,19.53
2019-05-17T14:14:03.482Z,19.74
2019-05-17T14:17:03.142Z,19.87
2019-05-17T14:19:36.207Z,19.61
2019-05-17T14:22:08.926Z,19.12
2019-05-17T14:24:42.370Z,18.74
2019-05-17T14:27:13.828Z,18.76
2019-05-17T14:29:44.234Z,18.44
2019-05-17T14:32:20.910Z,17.99
2019-05-17T14:34:51.352Z,18.02
2019-05-17T14:37:22.100Z,18.63
2019-05-17T14:39:52.636Z,19.09
2019-05-17T14:42:23.573Z,19.39
2019-05-17T14:45:00.271Z,19.67
2019-05-17T14:47:33.865Z,19.50
2019-05-17T14:50:04.915Z,19.25
2019-05-17T14:52:35.899Z,19.01
2019-05-17T14:55:08.091Z,18.58
2019-05-17T14:57:38.475Z,18.14
2019-05-17T15:00:10.040Z,17.82
2019-05-17T15:02:50.671Z,17.50
2019-05-17T15:05:34.445Z,17.69
2019-05-17T15:08:08.246Z,17.58
2019-05-17T15:10:44.215Z,17.88
2019-05-17T15:13:16.178Z,18.56
2019-05-17T15:15:59.029Z,18.83
2019-05-17T15:18:29.644Z,19.29
2019-05-17T15:21:00.150Z,19.36
2019-05-17T15:23:32.637Z,19.06
2019-05-17T15:26:03.866Z,18.80
2019-05-17T15:28:48.229Z,18.27
2019-05-17T15:31:18.735Z,17.87
2019-05-17T15:33:49.165Z,17.67
2019-05-17T15:36:19.764Z,17.43
2019-05-17T15:38:52.247Z,17.29
2019-05-17T15:41:27.094Z,17.38
2019-05-17T15:44:00.142Z,17.50
2019-05-17T15:46:32.322Z,17.41
2019-05-17T15:49:02.753Z,17.84
2019-05-17T15:51:33.147Z,18.41
2019-05-17T15:54:09.147Z,18.16
2019-05-17T15:56:40.090Z,18.37
2019-05-17T15:59:13.442Z,18.34
2019-05-17T16:04:37.113Z,17.89
2019-05-17T16:07:14.490Z,17.64
2019-05-17T16:09:45.202Z,17.73
2019-05-17T16:12:36.518Z,18.09
2019-05-17T16:15:06.826Z,18.56
2019-05-17T16:17:37.665Z,18.95
2019-05-17T16:20:16.333Z,19.33
2019-05-17T16:22:43.030Z,19.15
2019-05-17T16:25:15.242Z,18.50
2019-05-17T16:27:45.972Z,17.98
2019-05-17T16:30:21.187Z,17.70
2019-05-17T16:32:51.572Z,17.36
2019-05-17T16:35:22.021Z,17.18
2019-05-17T16:37:52.523Z,16.89
2019-05-17T16:40:25.318Z,16.62
2019-05-17T16:43:16.764Z,16.56
2019-05-17T16:45:35.338Z,16.48
2019-05-17T16:48:13.486Z,16.60
2019-05-17T16:50:47.008Z,16.79
2019-05-17T16:53:22.100Z,16.85
2019-05-17T16:55:54.459Z,16.91
2019-05-17T16:58:27.478Z,16.99
2019-05-17T17:01:08.421Z,16.95
2019-05-17T17:03:44.309Z,16.82
2019-05-17T17:06:21.987Z,16.67
2019-05-17T17:08:55.638Z,16.54
2019-05-17T17:11:39.105Z,16.43
2019-05-17T17:14:10.264Z,16.30
2019-05-17T17:16:41.055Z,16.21
2019-05-17T17:19:12.015Z,15.99
2019-05-17T17:21:44.932Z,15.77
2019-05-17T17:24:15.389Z,15.63
2019-05-17T17:26:50.187Z,15.43
2019-05-17T17:29:27.098Z,15.28
2019-05-17T17:32:00.893Z,15.07
2019-05-17T17:34:35.095Z,14.83
2019-05-17T17:37:05.517Z,14.80
2019-05-17T17:39:41.454Z,14.70
2019-05-17T17:42:12.280Z,14.59
2019-05-17T17:44:43.241Z,14.56
2019-05-17T17:47:17.279Z,14.46
2019-05-17T17:49:48.155Z,14.48
2019-05-17T17:52:20.809Z,14.39
2019-05-17T17:54:53.123Z,14.26
2019-05-17T17:57:30.897Z,14.17
2019-05-17T18:00:05.734Z,14.05
2019-05-17T18:02:47.100Z,13.85
2019-05-17T18:05:27.355Z,13.70
2019-05-17T18:07:59.402Z,13.63
2019-05-17T18:10:46.543Z,13.56
2019-05-17T18:13:44.469Z,13.46
2019-05-17T18:16:15.197Z,13.35
2019-05-17T18:19:01.363Z,13.27
2019-05-17T18:21:43.618Z,13.27
2019-05-17T18:24:42.217Z,13.24
2019-05-17T18:27:20.323Z,13.17
2019-05-17T18:29:51.348Z,13.02
2019-05-17T18:32:22.005Z,12.96
2019-05-17T18:34:53.304Z,12.88
2019-05-17T18:37:23.736Z,12.78
2019-05-17T18:39:54.163Z,12.62
2019-05-17T18:42:26.313Z,12.48
2019-05-17T18:45:05.886Z,12.40
2019-05-17T18:47:38.913Z,12.23
2019-05-17T18:50:16.921Z,12.07
2019-05-17T18:53:23.642Z,11.97
2019-05-17T18:55:57.289Z,11.86
2019-05-17T18:59:01.750Z,11.82
2019-05-17T19:02:10.516Z,11.72
2019-05-17T19:04:50.124Z,11.57
2019-05-17T19:07:31.101Z,11.62
2019-05-17T19:10:17.276Z,11.61
2019-05-17T19:12:54.102Z,11.56
2019-05-17T19:15:26.227Z,11.43
2019-05-17T19:18:03.581Z,11.35
2019-05-17T19:20:33.811Z,11.25
2019-05-17T19:23:04.600Z,11.19
2019-05-17T19:25:37.740Z,11.06
2019-05-17T19:28:08.310Z,10.90
2019-05-17T19:30:39.096Z,10.76
2019-05-17T19:33:21.592Z,10.62
2019-05-17T19:35:57.308Z,10.48
2019-05-17T19:38:28.188Z,10.33
2019-05-17T19:41:23.193Z,10.23
2019-05-17T19:43:57.248Z,10.12
2019-05-17T19:46:46.722Z,10.04
2019-05-17T19:49:20.073Z,9.93
2019-05-17T19:51:50.620Z,9.86
2019-05-17T19:54:34.501Z,9.78
2019-05-17T19:57:08.085Z,9.69
2019-05-17T19:59:39.174Z,9.60
2019-05-17T20:02:14.574Z,9.50
2019-05-17T20:04:45.296Z,9.44
2019-05-17T20:07:24.326Z,9.36
2019-05-17T20:09:59.944Z,9.22
2019-05-17T20:12:31.923Z,9.16
2019-05-17T20:15:17.326Z,9.07
2019-05-17T20:17:44.121Z,8.98
2019-05-17T20:20:15.232Z,8.90
2019-05-17T20:22:56.204Z,8.86
2019-05-17T20:25:34.534Z,8.80
2019-05-17T20:28:10.709Z,8.76
2019-05-17T20:30:44.105Z,8.75
2019-05-17T20:33:14.815Z,8.68
2019-05-17T20:35:53.140Z,8.65
2019-05-17T20:38:24.696Z,8.56
2019-05-17T20:40:56.960Z,8.55
2019-05-17T20:43:27.653Z,8.45
2019-05-17T20:45:58.151Z,8.41
2019-05-17T20:48:32.117Z,8.31
2019-05-17T20:51:08.155Z,8.28
2019-05-17T20:53:41.249Z,8.28
2019-05-17T20:56:11.902Z,8.18
2019-05-17T20:58:42.389Z,8.11
2019-05-17T21:01:16.086Z,8.02
2019-05-17T21:03:48.263Z,7.95
2019-05-17T21:06:21.295Z,7.83
2019-05-17T21:09:02.104Z,7.80
2019-05-17T21:11:34.168Z,7.75
2019-05-17T21:14:04.892Z,7.78
2019-05-17T21:16:39.654Z,7.71
2019-05-17T21:19:15.100Z,7.66
2019-05-17T21:21:49.084Z,7.65
2019-05-17T21:24:19.832Z,7.58
2019-05-17T21:26:53.170Z,7.49
2019-05-17T21:29:49.083Z,7.47
2019-05-17T21:32:37.474Z,7.47
2019-05-17T21:35:06.005Z,7.42
2019-05-17T21:37:38.070Z,7.38
2019-05-17T21:40:10.812Z,7.33
2019-05-17T21:42:46.126Z,7.25
2019-05-17T21:45:17.242Z,7.23
2019-05-17T21:47:48.189Z,7.17
2019-05-17T21:50:18.660Z,7.19
2019-05-17T21:52:52.393Z,7.15
2019-05-17T21:55:24.437Z,7.14
2019-05-17T21:57:58.313Z,7.04
2019-05-17T22:01:06.121Z,7.00
2019-05-17T22:03:39.386Z,6.87
2019-05-17T22:06:11.091Z,6.77
2019-05-17T22:08:44.094Z,6.75
2019-05-17T22:11:15.078Z,6.72
2019-05-17T22:13:47.956Z,6.79
2019-05-17T22:16:20.262Z,6.90
2019-05-17T22:18:51.350Z,6.97
2019-05-17T22:21:21.742Z,6.96
2019-05-17T22:23:54.734Z,6.90
2019-05-17T22:26:25.302Z,6.83
2019-05-17T22:29:14.561Z,6.78
2019-05-17T22:31:51.333Z,6.70
2019-05-17T22:34:24.874Z,6.71
2019-05-17T22:36:55.325Z,6.67
2019-05-17T22:39:26.099Z,6.64
2019-05-17T22:41:58.076Z,6.60
2019-05-17T22:44:28.485Z,6.62
2019-05-17T22:46:58.911Z,6.59
2019-05-17T22:49:31.266Z,6.59
2019-05-17T22:52:04.848Z,6.57
2019-05-17T22:54:35.246Z,6.59
2019-05-17T22:57:12.629Z,6.57
2019-05-17T22:59:46.103Z,6.60
2019-05-17T23:02:16.789Z,6.53
2019-05-17T23:04:47.228Z,6.48
2019-05-17T23:07:19.242Z,6.54
2019-05-17T23:09:54.230Z,6.53
2019-05-17T23:12:26.252Z,6.51
2019-05-17T23:14:59.150Z,6.64
2019-05-17T23:17:34.645Z,6.79
2019-05-17T23:20:08.293Z,6.81
2019-05-17T23:22:40.186Z,6.76
2019-05-17T23:25:13.301Z,6.75
2019-05-17T23:27:50.321Z,6.87
2019-05-17T23:30:22.964Z,6.87
2019-05-17T23:32:55.096Z,6.90
2019-05-17T23:35:25.699Z,6.76
2019-05-17T23:37:56.824Z,6.60
2019-05-17T23:40:28.563Z,6.51
2019-05-17T23:42:59.096Z,6.57
2019-05-17T23:45:29.529Z,6.66
2019-05-17T23:48:00.017Z,6.46
2019-05-17T23:50:31.564Z,6.29
2019-05-17T23:53:09.911Z,6.33
2019-05-17T23:55:40.363Z,6.30
2019-05-17T23:58:11.270Z,6.29
